createdAt,value
2017-10-12T00:01:48.511Z,9.30
2017-10-12T00:04:16.827Z,8.14
2017-10-12T00:06:45.175Z,7.86
2017-10-12T00:09:13.495Z,11.88
2017-10-12T00:11:41.871Z,9.32
2017-10-12T00:14:10.179Z,9.34
2017-10-12T00:16:38.590Z,28.58
2017-10-12T00:19:06.899Z,8.34
2017-10-12T00:21:35.290Z,8.32
2017-10-12T00:24:03.603Z,19.76
2017-10-12T00:26:32.879Z,10.28
2017-10-12T00:29:01.271Z,14.40
2017-10-12T00:31:29.608Z,12.70
2017-10-12T00:33:57.943Z,11.70
2017-10-12T00:36:26.311Z,10.96
2017-10-12T00:38:54.639Z,10.76
2017-10-12T00:41:23.006Z,11.02
2017-10-12T00:43:51.336Z,9.60
2017-10-12T00:46:19.657Z,9.62
2017-10-12T00:48:47.986Z,10.36
2017-10-12T00:51:16.323Z,11.72
2017-10-12T00:53:44.662Z,12.40
2017-10-12T00:56:14.407Z,11.54
2017-10-12T00:58:43.714Z,9.38
2017-10-12T01:01:12.051Z,12.82
2017-10-12T01:03:40.355Z,9.12
2017-10-12T01:06:08.679Z,7.64
2017-10-12T01:08:36.982Z,11.26
2017-10-12T01:11:05.363Z,10.72
2017-10-12T01:13:33.671Z,10.94
2017-10-12T01:16:02.847Z,9.00
2017-10-12T01:18:31.589Z,7.74
2017-10-12T01:20:59.928Z,11.12
2017-10-12T01:23:28.238Z,15.88
2017-10-12T01:25:56.679Z,8.30
2017-10-12T01:28:25.007Z,8.26
2017-10-12T01:30:53.379Z,9.74
2017-10-12T01:33:21.712Z,9.16
2017-10-12T01:35:50.092Z,16.42
2017-10-12T01:38:18.423Z,10.24
2017-10-12T01:40:46.788Z,7.60
2017-10-12T01:43:15.106Z,8.94
2017-10-12T01:45:43.487Z,7.94
2017-10-12T01:48:11.840Z,11.22
2017-10-12T01:50:40.147Z,7.82
2017-10-12T01:53:08.502Z,8.84
2017-10-12T01:55:36.066Z,11.40
2017-10-12T01:58:04.391Z,7.42
2017-10-12T02:00:33.739Z,11.38
2017-10-12T02:03:02.068Z,7.02
2017-10-12T02:05:30.400Z,8.86
2017-10-12T02:07:58.726Z,12.44
2017-10-12T02:10:27.051Z,8.98
2017-10-12T02:12:56.342Z,7.56
2017-10-12T02:15:24.686Z,7.60
2017-10-12T02:17:53.004Z,7.94
2017-10-12T02:20:21.308Z,7.86
2017-10-12T02:22:49.677Z,12.00
2017-10-12T02:25:17.982Z,6.88
2017-10-12T02:27:47.412Z,7.94
2017-10-12T02:30:15.719Z,7.46
2017-10-12T02:32:45.550Z,7.56
2017-10-12T02:35:14.972Z,8.40
2017-10-12T02:37:44.335Z,6.72
2017-10-12T02:40:13.722Z,7.80
2017-10-12T02:42:42.059Z,5.94
2017-10-12T02:45:10.371Z,6.44
2017-10-12T02:47:38.715Z,6.52
2017-10-12T02:50:07.023Z,6.20
2017-10-12T02:52:35.464Z,6.82
2017-10-12T02:55:03.808Z,8.10
2017-10-12T02:57:32.183Z,8.72
2017-10-12T03:00:00.509Z,6.18
2017-10-12T03:02:28.872Z,6.12
2017-10-12T03:04:57.200Z,6.60
2017-10-12T03:07:25.578Z,6.48
2017-10-12T03:09:54.003Z,9.80
2017-10-12T03:12:22.308Z,5.98
2017-10-12T03:14:50.720Z,8.08
2017-10-12T03:17:19.028Z,8.88
2017-10-12T03:19:47.330Z,6.52
2017-10-12T03:22:15.657Z,6.44
2017-10-12T03:24:44.692Z,7.04
2017-10-12T03:27:13.991Z,6.84
2017-10-12T03:29:44.311Z,5.40
2017-10-12T03:32:12.681Z,5.40
2017-10-12T03:34:41.104Z,5.76
2017-10-12T03:37:09.439Z,6.66
2017-10-12T03:39:37.807Z,5.42
2017-10-12T03:42:06.172Z,5.54
2017-10-12T03:44:34.516Z,4.90
2017-10-12T03:47:04.007Z,4.58
2017-10-12T03:49:33.395Z,5.74
2017-10-12T03:52:02.947Z,5.80
2017-10-12T03:54:32.415Z,5.48
2017-10-12T03:57:00.714Z,4.78
2017-10-12T03:59:30.085Z,4.60
2017-10-12T04:01:58.391Z,5.20
2017-10-12T04:04:26.786Z,5.06
2017-10-12T04:06:55.095Z,6.66
2017-10-12T04:09:24.437Z,4.10
2017-10-12T04:11:52.738Z,3.86
2017-10-12T04:14:21.104Z,7.08
2017-10-12T04:16:49.427Z,5.12
2017-10-12T04:19:18.736Z,5.12
2017-10-12T04:21:47.077Z,6.92
2017-10-12T04:24:15.427Z,9.82
2017-10-12T04:26:44.735Z,3.64
2017-10-12T04:29:14.279Z,4.26
2017-10-12T04:31:42.658Z,4.00
2017-10-12T04:34:11.024Z,5.14
2017-10-12T04:36:39.362Z,3.68
2017-10-12T04:39:07.743Z,4.94
2017-10-12T04:41:36.047Z,4.66
2017-10-12T04:44:04.484Z,4.68
2017-10-12T04:46:33.926Z,4.28
2017-10-12T04:49:03.365Z,4.68
2017-10-12T04:51:33.317Z,4.02
2017-10-12T04:54:02.885Z,5.58
2017-10-12T04:56:31.628Z,6.50
2017-10-12T04:58:59.960Z,5.78
2017-10-12T05:01:27.496Z,5.32
2017-10-12T05:03:55.098Z,4.74
2017-10-12T05:06:23.402Z,4.32
2017-10-12T05:08:51.720Z,5.32
2017-10-12T05:11:20.039Z,5.42
2017-10-12T05:13:48.344Z,6.38
2017-10-12T05:16:15.910Z,6.28
2017-10-12T05:18:45.191Z,9.32
2017-10-12T05:21:13.523Z,7.76
2017-10-12T05:23:41.167Z,5.58
2017-10-12T05:26:09.467Z,6.88
2017-10-12T05:28:37.915Z,5.88
2017-10-12T05:31:06.227Z,10.56
2017-10-12T05:33:34.619Z,5.04
2017-10-12T05:36:03.671Z,9.96
2017-10-12T05:38:32.873Z,18.44
2017-10-12T05:41:01.584Z,10.44
2017-10-12T05:43:29.949Z,6.28
2017-10-12T05:45:58.275Z,5.32
2017-10-12T05:48:26.575Z,7.12
2017-10-12T05:50:54.903Z,6.72
2017-10-12T05:53:23.266Z,6.96
2017-10-12T05:55:51.600Z,6.72
2017-10-12T05:58:19.966Z,8.80
2017-10-12T06:00:48.280Z,8.06
2017-10-12T06:03:16.573Z,6.66
2017-10-12T06:05:44.908Z,7.72
2017-10-12T06:08:13.206Z,9.70
2017-10-12T06:10:41.503Z,7.28
2017-10-12T06:13:09.816Z,9.18
2017-10-12T06:15:38.117Z,10.40
2017-10-12T06:18:06.429Z,7.12
2017-10-12T06:20:34.722Z,8.46
2017-10-12T06:23:03.077Z,15.22
2017-10-12T06:25:31.368Z,8.84
2017-10-12T06:27:59.681Z,5.70
2017-10-12T06:30:27.977Z,6.76
2017-10-12T06:32:56.302Z,30.56
2017-10-12T06:35:24.610Z,10.70
2017-10-12T06:37:52.905Z,6.00
2017-10-12T06:40:21.264Z,8.28
2017-10-12T06:42:49.565Z,10.18
2017-10-12T06:45:17.882Z,9.52
2017-10-12T06:47:46.170Z,9.22
2017-10-12T06:50:14.480Z,6.52
2017-10-12T06:52:42.769Z,7.68
2017-10-12T06:55:11.103Z,5.84
2017-10-12T06:57:39.397Z,9.22
2017-10-12T07:00:07.684Z,8.12
2017-10-12T07:02:36.006Z,10.56
2017-10-12T07:05:04.296Z,5.30
2017-10-12T07:07:32.609Z,8.62
2017-10-12T07:10:00.912Z,15.78
2017-10-12T07:12:31.195Z,10.14
2017-10-12T07:14:59.489Z,6.26
2017-10-12T07:17:27.780Z,10.68
2017-10-12T07:19:56.097Z,12.28
2017-10-12T07:22:24.392Z,7.68
2017-10-12T07:24:52.709Z,7.28
2017-10-12T07:27:21.008Z,7.02
2017-10-12T07:29:49.329Z,8.26
2017-10-12T07:32:16.853Z,7.54
2017-10-12T07:34:45.188Z,7.00
2017-10-12T07:37:13.482Z,7.18
2017-10-12T07:39:41.768Z,7.66
2017-10-12T07:42:10.085Z,9.38
2017-10-12T07:44:38.377Z,7.58
2017-10-12T07:47:05.933Z,5.12
2017-10-12T07:49:34.231Z,11.84
2017-10-12T07:52:02.557Z,6.46
2017-10-12T07:54:30.085Z,9.60
2017-10-12T07:56:58.401Z,12.24
2017-10-12T07:59:26.690Z,9.44
2017-10-12T08:01:55.017Z,9.94
2017-10-12T08:04:23.310Z,9.76
2017-10-12T08:06:51.610Z,7.20
2017-10-12T08:09:19.932Z,10.72
2017-10-12T08:11:48.234Z,13.14
2017-10-12T08:14:16.553Z,8.78
2017-10-12T08:16:44.840Z,6.02
2017-10-12T08:19:13.155Z,8.90
2017-10-12T08:21:41.454Z,6.02
2017-10-12T08:24:09.765Z,7.82
2017-10-12T08:26:38.054Z,5.78
2017-10-12T08:29:06.386Z,6.90
2017-10-12T08:31:34.680Z,6.98
2017-10-12T08:34:02.989Z,8.06
2017-10-12T08:36:31.323Z,11.00
2017-10-12T08:38:59.649Z,8.50
2017-10-12T08:41:27.961Z,7.98
2017-10-12T08:43:56.250Z,7.64
2017-10-12T08:46:24.570Z,13.74
2017-10-12T08:48:52.860Z,8.56
2017-10-12T08:51:21.181Z,6.28
2017-10-12T08:53:49.464Z,9.96
2017-10-12T08:56:17.797Z,9.06
2017-10-12T08:58:46.101Z,5.88
2017-10-12T09:01:14.397Z,4.00
2017-10-12T09:03:42.708Z,4.54
2017-10-12T09:06:10.238Z,10.90
2017-10-12T09:08:38.544Z,5.44
2017-10-12T09:11:06.833Z,7.82
2017-10-12T09:13:35.155Z,7.60
2017-10-12T09:16:04.441Z,6.00
2017-10-12T09:18:32.761Z,12.18
2017-10-12T09:21:01.052Z,7.08
2017-10-12T09:23:29.376Z,6.98
2017-10-12T09:25:57.664Z,5.86
2017-10-12T09:28:25.953Z,8.34
2017-10-12T09:30:54.257Z,7.98
2017-10-12T09:33:22.677Z,9.98
2017-10-12T09:35:50.985Z,10.12
2017-10-12T09:38:19.281Z,6.64
2017-10-12T09:40:47.596Z,10.64
2017-10-12T09:43:15.901Z,8.10
2017-10-12T09:45:44.209Z,8.62
2017-10-12T09:48:12.500Z,6.14
2017-10-12T09:50:40.841Z,5.60
2017-10-12T09:53:09.148Z,5.68
2017-10-12T09:55:37.436Z,6.90
2017-10-12T09:58:05.766Z,8.98
2017-10-12T10:00:34.993Z,9.52
2017-10-12T10:03:03.310Z,7.62
2017-10-12T10:05:31.625Z,5.68
2017-10-12T10:07:59.935Z,7.32
2017-10-12T10:10:28.232Z,7.78
2017-10-12T10:12:56.556Z,6.34
2017-10-12T10:15:24.845Z,7.28
2017-10-12T10:17:53.131Z,7.74
2017-10-12T10:20:21.448Z,6.54
2017-10-12T10:22:49.733Z,4.62
2017-10-12T10:25:18.037Z,6.24
2017-10-12T10:27:46.328Z,6.20
2017-10-12T10:30:14.638Z,6.32
2017-10-12T10:32:42.930Z,8.84
2017-10-12T10:35:11.255Z,6.30
2017-10-12T10:37:38.780Z,10.16
2017-10-12T10:40:07.069Z,4.50
2017-10-12T10:42:35.382Z,7.26
2017-10-12T10:45:03.677Z,3.40
2017-10-12T10:47:31.228Z,5.44
2017-10-12T10:49:59.514Z,5.94
2017-10-12T10:52:27.825Z,6.44
2017-10-12T10:54:55.349Z,7.76
2017-10-12T10:57:23.683Z,10.76
2017-10-12T10:59:51.969Z,5.74
2017-10-12T11:02:20.249Z,6.14
2017-10-12T11:04:48.569Z,5.26
2017-10-12T11:07:16.858Z,6.30
2017-10-12T11:09:45.180Z,6.74
2017-10-12T11:12:13.469Z,6.42
2017-10-12T11:14:41.790Z,13.46
2017-10-12T11:17:10.082Z,8.02
2017-10-12T11:19:38.385Z,9.64
2017-10-12T11:22:06.688Z,7.54
2017-10-12T11:24:35.021Z,4.02
2017-10-12T11:27:03.309Z,6.82
2017-10-12T11:29:31.639Z,8.16
2017-10-12T11:31:59.957Z,7.64
2017-10-12T11:34:28.252Z,6.78
2017-10-12T11:36:56.653Z,8.64
2017-10-12T11:39:24.949Z,7.12
2017-10-12T11:41:53.265Z,9.40
2017-10-12T11:44:21.552Z,6.54
2017-10-12T11:46:50.066Z,5.30
2017-10-12T11:49:18.356Z,6.68
2017-10-12T11:51:46.689Z,4.54
2017-10-12T11:54:14.980Z,5.34
2017-10-12T11:56:43.264Z,6.30
2017-10-12T11:59:11.577Z,3.80
2017-10-12T12:01:39.867Z,9.30
2017-10-12T12:04:08.181Z,5.02
2017-10-12T12:06:36.468Z,5.92
2017-10-12T12:09:04.813Z,5.22
2017-10-12T12:11:33.222Z,9.54
2017-10-12T12:14:02.121Z,6.02
2017-10-12T12:16:30.418Z,7.44
2017-10-12T12:18:58.745Z,3.86
2017-10-12T12:21:27.039Z,10.06
2017-10-12T12:23:55.328Z,8.42
2017-10-12T12:26:23.637Z,5.86
2017-10-12T12:28:51.928Z,9.48
2017-10-12T12:31:20.242Z,6.24
2017-10-12T12:33:48.541Z,9.60
2017-10-12T12:36:16.980Z,9.54
2017-10-12T12:38:45.264Z,6.54
2017-10-12T12:41:13.574Z,8.18
2017-10-12T12:43:41.865Z,4.72
2017-10-12T12:46:10.203Z,7.14
2017-10-12T12:48:38.499Z,10.22
2017-10-12T12:51:06.802Z,7.04
2017-10-12T12:53:35.119Z,8.34
2017-10-12T12:56:03.412Z,12.12
2017-10-12T12:58:31.736Z,9.22
2017-10-12T13:01:00.030Z,10.22
2017-10-12T13:03:28.337Z,7.76
2017-10-12T13:05:56.637Z,8.84
2017-10-12T13:08:24.951Z,10.10
2017-10-12T13:10:53.236Z,10.58
2017-10-12T13:13:21.569Z,7.54
2017-10-12T13:15:49.868Z,8.24
2017-10-12T13:18:17.397Z,11.96
2017-10-12T13:20:45.717Z,9.72
2017-10-12T13:23:14.001Z,7.32
2017-10-12T13:25:42.304Z,7.86
2017-10-12T13:28:10.593Z,9.06
2017-10-12T13:30:38.902Z,8.12
2017-10-12T13:33:07.190Z,5.88
2017-10-12T13:35:35.521Z,10.76
2017-10-12T13:38:03.817Z,6.70
2017-10-12T13:40:32.153Z,13.94
2017-10-12T13:43:00.441Z,8.36
2017-10-12T13:45:28.733Z,14.76
2017-10-12T13:47:57.049Z,5.64
2017-10-12T13:50:25.340Z,9.42
2017-10-12T13:52:53.661Z,12.18
2017-10-12T13:55:21.960Z,10.58
2017-10-12T13:57:50.278Z,10.04
2017-10-12T14:00:18.577Z,8.00
2017-10-12T14:02:46.893Z,11.90
2017-10-12T14:05:15.194Z,75.28
2017-10-12T14:07:43.513Z,25.54
2017-10-12T14:10:11.825Z,10.16
2017-10-12T14:12:40.120Z,20.60
2017-10-12T14:15:08.448Z,7.14
2017-10-12T14:17:36.742Z,10.30
2017-10-12T14:20:05.065Z,11.08
2017-10-12T14:22:33.366Z,15.44
2017-10-12T14:25:01.718Z,9.24
2017-10-12T14:27:30.017Z,10.38
2017-10-12T14:29:58.301Z,8.14
2017-10-12T14:32:26.651Z,10.48
2017-10-12T14:34:54.944Z,13.56
2017-10-12T14:37:23.256Z,13.60
2017-10-12T14:39:51.545Z,8.26
2017-10-12T14:42:19.865Z,9.92
2017-10-12T14:44:48.166Z,11.86
2017-10-12T14:47:16.505Z,7.38
2017-10-12T14:49:44.796Z,9.78
2017-10-12T14:52:12.352Z,8.26
2017-10-12T14:54:40.645Z,11.76
2017-10-12T14:57:08.933Z,14.66
2017-10-12T14:59:37.244Z,14.62
2017-10-12T15:02:05.538Z,12.74
2017-10-12T15:04:33.877Z,10.82
2017-10-12T15:07:02.185Z,8.80
2017-10-12T15:09:33.820Z,7.66
2017-10-12T15:12:02.556Z,10.60
2017-10-12T15:14:30.881Z,7.90
2017-10-12T15:16:59.176Z,8.30
2017-10-12T15:19:27.514Z,8.88
2017-10-12T15:21:55.810Z,9.86
2017-10-12T15:24:24.118Z,13.70
2017-10-12T15:26:52.438Z,7.84
2017-10-12T15:29:20.729Z,6.96
2017-10-12T15:31:49.047Z,10.98
2017-10-12T15:34:17.352Z,8.54
2017-10-12T15:36:45.696Z,9.22
2017-10-12T15:39:14.009Z,11.44
2017-10-12T15:41:42.320Z,11.82
2017-10-12T15:44:10.614Z,9.00
2017-10-12T15:46:38.940Z,7.66
2017-10-12T15:49:06.572Z,5.64
2017-10-12T15:51:34.914Z,10.00
2017-10-12T15:54:03.279Z,9.70
2017-10-12T15:56:31.598Z,10.26
2017-10-12T15:58:59.917Z,7.34
2017-10-12T16:01:28.201Z,9.26
2017-10-12T16:03:56.518Z,6.34
2017-10-12T16:06:24.810Z,8.16
2017-10-12T16:08:53.112Z,7.98
2017-10-12T16:11:21.432Z,7.30
2017-10-12T16:13:49.771Z,7.84
2017-10-12T16:16:18.074Z,7.40
2017-10-12T16:18:46.403Z,5.60
2017-10-12T16:21:14.708Z,10.24
2017-10-12T16:23:42.996Z,16.90
2017-10-12T16:26:10.550Z,10.24
2017-10-12T16:28:38.841Z,11.02
2017-10-12T16:31:07.166Z,18.14
2017-10-12T16:33:35.469Z,10.86
2017-10-12T16:36:03.834Z,16.52
2017-10-12T16:38:32.184Z,9.48
2017-10-12T16:41:00.594Z,9.34
2017-10-12T16:43:28.945Z,16.82
2017-10-12T16:45:57.238Z,7.10
2017-10-12T16:48:25.561Z,7.94
2017-10-12T16:50:53.868Z,10.08
2017-10-12T16:53:22.201Z,9.56
2017-10-12T16:55:50.505Z,14.32
2017-10-12T16:58:18.080Z,8.64
2017-10-12T17:00:46.387Z,12.16
2017-10-12T17:03:14.733Z,8.54
2017-10-12T17:05:42.265Z,14.72
2017-10-12T17:08:10.732Z,10.22
2017-10-12T17:10:39.161Z,16.12
2017-10-12T17:13:07.481Z,11.32
2017-10-12T17:15:35.805Z,9.74
2017-10-12T17:18:04.114Z,9.82
2017-10-12T17:20:32.549Z,7.76
2017-10-12T17:23:00.862Z,13.64
2017-10-12T17:25:29.190Z,10.34
2017-10-12T17:27:57.490Z,9.60
2017-10-12T17:30:25.842Z,8.96
2017-10-12T17:32:54.141Z,16.22
2017-10-12T17:35:23.397Z,16.16
2017-10-12T17:37:51.721Z,13.80
2017-10-12T17:40:20.021Z,11.42
2017-10-12T17:42:48.336Z,10.36
2017-10-12T17:45:16.636Z,13.16
2017-10-12T17:47:44.957Z,18.04
2017-10-12T17:50:13.253Z,16.96
2017-10-12T17:52:40.805Z,12.08
2017-10-12T17:55:09.105Z,16.22
2017-10-12T17:57:37.441Z,10.24
2017-10-12T18:00:05.748Z,14.74
2017-10-12T18:02:34.041Z,11.28
2017-10-12T18:05:02.374Z,15.12
2017-10-12T18:07:30.693Z,27.34
2017-10-12T18:09:59.020Z,30.30
2017-10-12T18:12:27.314Z,18.42
2017-10-12T18:14:55.629Z,22.26
2017-10-12T18:17:23.927Z,19.22
2017-10-12T18:19:52.246Z,33.70
2017-10-12T18:22:20.554Z,40.84
2017-10-12T18:24:48.893Z,30.76
2017-10-12T18:27:17.189Z,34.86
2017-10-12T18:29:45.484Z,117.88
2017-10-12T18:32:13.815Z,69.94
2017-10-12T18:34:42.190Z,101.76
2017-10-12T18:37:10.498Z,112.40
2017-10-12T18:39:38.790Z,43.78
2017-10-12T18:42:06.334Z,10.16
2017-10-12T18:44:34.829Z,14.24
2017-10-12T18:47:03.170Z,25.84
2017-10-12T18:49:31.472Z,61.24
2017-10-12T18:51:59.817Z,54.96
2017-10-12T18:54:28.204Z,70.60
2017-10-12T18:56:56.496Z,69.84
2017-10-12T18:59:24.813Z,47.26
2017-10-12T19:01:53.134Z,37.68
2017-10-12T19:04:21.472Z,33.22
2017-10-12T19:06:49.800Z,40.38
2017-10-12T19:09:18.126Z,80.96
2017-10-12T19:11:46.621Z,65.74
2017-10-12T19:14:14.982Z,54.36
2017-10-12T19:16:43.292Z,85.10
2017-10-12T19:19:12.657Z,22.04
2017-10-12T19:21:41.053Z,40.86
2017-10-12T19:24:09.361Z,33.42
2017-10-12T19:26:37.669Z,17.20
2017-10-12T19:29:05.213Z,17.78
2017-10-12T19:31:33.541Z,22.38
2017-10-12T19:34:01.838Z,20.62
2017-10-12T19:36:30.151Z,21.44
2017-10-12T19:38:58.680Z,15.82
2017-10-12T19:41:26.997Z,16.96
2017-10-12T19:43:55.293Z,16.96
2017-10-12T19:46:23.655Z,28.98
2017-10-12T19:48:51.949Z,15.68
2017-10-12T19:51:27.208Z,14.80
2017-10-12T19:53:48.597Z,8.94
2017-10-12T19:56:16.885Z,13.70
2017-10-12T20:01:13.525Z,16.26
2017-10-12T20:03:41.829Z,12.48
2017-10-12T20:06:10.125Z,13.32
2017-10-12T20:11:06.833Z,14.68
2017-10-12T20:13:35.952Z,14.08
2017-10-12T20:16:03.584Z,13.54
2017-10-12T20:18:32.047Z,15.98
2017-10-12T20:21:00.356Z,17.40
2017-10-12T20:23:28.649Z,15.14
2017-10-12T20:25:56.965Z,15.44
2017-10-12T20:28:25.262Z,23.96
2017-10-12T20:30:53.572Z,17.18
2017-10-12T20:33:21.860Z,23.02
2017-10-12T20:35:50.177Z,22.20
2017-10-12T20:38:18.468Z,32.82
2017-10-12T20:40:46.794Z,22.92
2017-10-12T20:43:15.085Z,19.12
2017-10-12T20:45:43.378Z,18.62
2017-10-12T20:48:11.694Z,22.66
2017-10-12T20:50:39.982Z,23.16
2017-10-12T20:53:08.302Z,21.52
2017-10-12T20:55:36.595Z,20.00
2017-10-12T20:58:04.908Z,23.38
2017-10-12T21:00:33.208Z,20.98
2017-10-12T21:03:01.527Z,18.84
2017-10-12T21:05:29.822Z,22.04
2017-10-12T21:07:58.158Z,17.98
2017-10-12T21:10:26.449Z,19.30
2017-10-12T21:12:54.745Z,18.28
2017-10-12T21:15:23.061Z,17.82
2017-10-12T21:17:51.362Z,25.64
2017-10-12T21:20:19.676Z,15.20
2017-10-12T21:22:47.969Z,18.58
2017-10-12T21:25:16.285Z,16.42
2017-10-12T21:27:44.573Z,17.56
2017-10-12T21:30:12.897Z,19.40
2017-10-12T21:32:41.194Z,16.38
2017-10-12T21:35:09.682Z,23.88
2017-10-12T21:37:38.022Z,18.86
2017-10-12T21:40:06.324Z,24.96
2017-10-12T21:42:34.653Z,21.26
2017-10-12T21:45:02.950Z,17.14
2017-10-12T21:47:31.261Z,12.04
2017-10-12T21:49:59.556Z,15.80
2017-10-12T21:52:27.872Z,14.02
2017-10-12T21:54:56.154Z,18.30
2017-10-12T21:57:24.502Z,18.24
2017-10-12T21:59:52.788Z,15.92
2017-10-12T22:02:21.084Z,13.08
2017-10-12T22:04:49.394Z,20.04
2017-10-12T22:07:17.689Z,18.16
2017-10-12T22:09:46.118Z,13.18
2017-10-12T22:12:14.408Z,115.00
2017-10-12T22:14:42.724Z,62.60
2017-10-12T22:17:11.022Z,28.60
2017-10-12T22:19:39.337Z,16.48
2017-10-12T22:22:07.712Z,17.24
2017-10-12T22:24:36.061Z,17.75
2017-10-12T22:27:03.588Z,31.88
2017-10-12T22:29:31.873Z,13.98
2017-10-12T22:32:00.193Z,29.76
2017-10-12T22:34:28.490Z,49.84
2017-10-12T22:36:56.808Z,15.16
2017-10-12T22:39:25.092Z,14.82
2017-10-12T22:41:53.400Z,12.84
2017-10-12T22:44:20.929Z,17.24
2017-10-12T22:46:49.245Z,33.18
2017-10-12T22:49:17.543Z,33.94
2017-10-12T22:51:45.861Z,23.04
2017-10-12T22:54:14.173Z,14.98
2017-10-12T22:56:42.453Z,11.30
2017-10-12T22:59:10.765Z,16.56
2017-10-12T23:01:40.175Z,12.00
2017-10-12T23:04:08.536Z,21.12
2017-10-12T23:06:36.832Z,19.36
2017-10-12T23:09:05.149Z,17.14
2017-10-12T23:11:33.441Z,17.10
2017-10-12T23:14:01.754Z,18.10
2017-10-12T23:16:30.062Z,11.58
2017-10-12T23:18:58.354Z,15.02
2017-10-12T23:21:26.721Z,14.02
2017-10-12T23:23:55.025Z,10.38
2017-10-12T23:26:23.397Z,12.28
2017-10-12T23:28:51.693Z,12.26
2017-10-12T23:31:20.004Z,9.88
2017-10-12T23:33:48.292Z,11.54
2017-10-12T23:36:16.621Z,12.24
2017-10-12T23:38:44.905Z,9.92
2017-10-12T23:41:13.193Z,9.66
2017-10-12T23:43:41.501Z,11.34
2017-10-12T23:46:09.801Z,14.85
2017-10-12T23:48:38.117Z,11.70
2017-10-12T23:51:06.413Z,7.10
2017-10-12T23:53:34.730Z,10.58
2017-10-12T23:56:03.030Z,13.68
2017-10-12T23:58:31.334Z,9.84
